KOUN/OUN METAR and TAF weather

Enter ICAO airport designator
Station Type Date Time Source
KOUN METAR 2022/01/23 11:15 UTC NOAA

KOUN 231115Z AUTO 22006KT 10SM CLR 01/M09 A3018 RMK AO2 T00121091


Station Type Date Time Source
KOUN Decoded METAR 2022/01/23 11:15 UTC NOAA

Norman / Max Westheimer, OK, United States (KOUN) 35-13N 097-27W 357M
Jan 23, 2022 - 06:15 AM EST / 2022.01.23 1115 UTC
Wind: from the SW (220 degrees) at 7 MPH (6 KT):0
Visibility: 10 mile(s):0
Sky conditions: clear
Temperature: 34.2 F (1.2 C)
Windchill: 28 F (-2 C):1
Dew Point: 15.6 F (-9.1 C)
Relative Humidity: 46%
Pressure (altimeter): 30.18 in. Hg (1022 hPa)
ob: KOUN 231115Z AUTO 22006KT 10SM CLR 01/M09 A3018 RMK AO2 T00121091
cycle: 11

Station Type Date Time Source
KOUN TAF 2022/01/23 12:22 UTC NOAA

TAF KOUN 231120Z 2312/2412 25007KT P6SM SKC
FM231700 33006KT P6SM SKC
FM240300 20005KT P6SM SKC

Example: see airport list